Time;durP1;ratioP1;P1;durP2;ratioP2;P2;SDS_P1;SDS_P2;PMS_P1;PMS_P2;Temp;Humidity;BMP_temperature;BMP_pressure;BME280_temperature;BME280_humidity;BME280_pressure;Samples;Min_cycle;Max_cycle;Signal;HPM_P1;HPM_P2
2022/05/07 00:00:41;;;;;;;12.80;8.70;;;;;;;8.40;57.55;100792.96;130432;1268;108560;-77
2022/05/07 00:03:46;;;;;;;14.20;9.00;;;;;;;8.35;57.46;100788.64;130321;1268;108744;-78
2022/05/07 00:06:52;;;;;;;13.00;9.10;;;;;;;8.31;57.59;100782.77;130604;1268;108649;-78
2022/05/07 00:09:58;;;;;;;12.10;8.90;;;;;;;8.27;57.70;100786.80;130524;1267;107605;-78
2022/05/07 00:13:04;;;;;;;13.50;9.20;;;;;;;8.23;57.75;100787.13;130606;1266;108832;-78
2022/05/07 00:19:34;;;;;;;11.20;8.60;;;;;;;8.13;57.90;100781.14;130553;1268;108586;-77
2022/05/07 00:22:40;;;;;;;15.20;8.90;;;;;;;8.11;57.92;100786.88;130516;1267;108797;-78
2022/05/07 00:25:45;;;;;;;11.20;8.60;;;;;;;8.07;57.74;100786.27;130538;1268;108621;-78
2022/05/07 00:28:51;;;;;;;12.70;9.10;;;;;;;8.03;58.02;100786.45;130567;1268;108996;-78
2022/05/07 00:31:57;;;;;;;13.40;9.30;;;;;;;8.00;57.98;100785.02;130549;1268;108951;-77
2022/05/07 00:35:03;;;;;;;13.80;9.10;;;;;;;7.98;57.83;100786.08;130538;1267;108831;-77
2022/05/07 00:38:09;;;;;;;12.50;8.70;;;;;;;7.96;58.08;100783.30;130535;1268;109064;-77
2022/05/07 00:41:14;;;;;;;13.30;9.00;;;;;;;7.90;58.25;100780.39;130511;1268;108649;-77
2022/05/07 00:44:22;;;;;;;13.60;9.00;;;;;;;7.85;58.11;100780.39;130557;1268;108763;-77
2022/05/07 00:47:30;;;;;;;13.10;9.10;;;;;;;7.83;58.31;100781.65;130565;1268;108651;-77
2022/05/07 00:53:59;;;;;;;12.50;8.90;;;;;;;7.77;58.33;100778.53;130518;1268;107736;-78
2022/05/07 00:57:05;;;;;;;15.10;8.90;;;;;;;7.77;58.51;100776.80;130549;1268;108710;-77
2022/05/07 01:00:12;;;;;;;12.50;9.30;;;;;;;7.76;58.51;100774.39;130514;1267;108773;-78
2022/05/07 01:03:19;;;;;;;13.00;9.90;;;;;;;7.76;58.68;100775.63;130570;1266;108673;-78
2022/05/07 01:06:24;;;;;;;11.90;8.30;;;;;;;7.74;58.54;100769.74;130551;1267;108747;-77
2022/05/07 01:09:30;;;;;;;12.80;8.10;;;;;;;7.71;58.35;100767.16;130554;1267;108679;-78
2022/05/07 01:12:36;;;;;;;11.80;8.40;;;;;;;7.68;58.58;100766.33;130516;1268;108698;-77
2022/05/07 01:15:46;;;;;;;11.60;8.00;;;;;;;7.72;58.69;100765.00;130520;1267;108785;-77
2022/05/07 01:18:53;;;;;;;11.90;8.90;;;;;;;7.75;58.50;100762.23;130587;1267;108693;-77
2022/05/07 01:21:59;;;;;;;11.80;9.10;;;;;;;7.71;58.62;100760.45;130352;1268;108956;-77
2022/05/07 01:25:07;;;;;;;11.20;8.30;;;;;;;7.71;58.77;100754.45;130308;1268;109217;-78
2022/05/07 01:28:13;;;;;;;12.90;8.50;;;;;;;7.74;58.63;100750.34;130243;1268;108853;-77
2022/05/07 01:31:19;;;;;;;12.10;9.00;;;;;;;7.73;58.70;100750.33;130173;1268;108946;-76
2022/05/07 01:34:25;;;;;;;11.60;8.40;;;;;;;7.72;58.70;100745.50;130269;1268;108955;-76
2022/05/07 01:37:33;;;;;;;13.10;8.90;;;;;;;7.67;58.93;100742.16;130266;1268;108807;-77
2022/05/07 01:40:38;;;;;;;12.30;9.10;;;;;;;7.62;58.78;100740.95;130262;1268;108687;-77
2022/05/07 01:43:44;;;;;;;11.50;8.80;;;;;;;7.56;58.99;100742.35;130301;1268;108747;-76
2022/05/07 01:50:14;;;;;;;11.10;8.40;;;;;;;7.47;59.03;100736.66;130247;1268;108732;-77
2022/05/07 01:53:20;;;;;;;12.40;8.90;;;;;;;7.39;59.15;100736.61;130221;1268;108704;-77
2022/05/07 01:56:28;;;;;;;11.20;8.40;;;;;;;7.33;59.37;100736.92;130238;1268;108645;-77
2022/05/07 01:59:34;;;;;;;12.10;8.50;;;;;;;7.30;59.23;100738.69;130242;1268;107708;-77
2022/05/07 02:02:41;;;;;;;14.70;9.40;;;;;;;7.29;59.18;100738.48;130251;1268;108941;-78
2022/05/07 02:05:53;;;;;;;12.90;9.20;;;;;;;7.24;59.58;100737.94;130273;1268;108752;-78
2022/05/07 02:09:00;;;;;;;10.70;9.10;;;;;;;7.21;59.57;100741.90;130274;1268;108831;-78
2022/05/07 02:12:10;;;;;;;13.50;9.50;;;;;;;7.07;60.07;100746.72;130313;1268;108744;-76
2022/05/07 02:15:18;;;;;;;13.40;9.60;;;;;;;6.95;60.02;100753.60;130231;1268;107622;-76
2022/05/07 02:18:25;;;;;;;11.80;8.40;;;;;;;6.83;60.09;100747.08;130210;1268;108930;-76
2022/05/07 02:21:30;;;;;;;11.10;8.30;;;;;;;6.83;60.18;100748.53;130256;1268;108903;-76
2022/05/07 02:24:36;;;;;;;13.80;9.10;;;;;;;6.84;60.00;100748.94;130268;1268;108852;-77
2022/05/07 02:27:43;;;;;;;13.30;8.80;;;;;;;6.88;60.03;100747.94;130237;1268;108852;-76
2022/05/07 02:30:49;;;;;;;11.60;8.60;;;;;;;6.96;59.85;100753.16;130220;1268;108661;-77
2022/05/07 02:33:54;;;;;;;14.30;9.50;;;;;;;7.03;60.07;100754.61;130215;1268;108709;-77
2022/05/07 02:37:01;;;;;;;12.90;9.30;;;;;;;7.07;59.78;100748.65;130261;1268;108703;-78
2022/05/07 02:40:10;;;;;;;12.60;9.20;;;;;;;7.07;59.86;100751.45;130274;1268;107858;-76
2022/05/07 02:43:15;;;;;;;14.10;10.40;;;;;;;7.04;59.98;100753.08;130240;1268;108704;-76
2022/05/07 02:46:22;;;;;;;14.90;9.60;;;;;;;7.01;59.83;100757.71;130214;1268;108863;-76
2022/05/07 02:49:27;;;;;;;12.70;9.30;;;;;;;6.99;59.88;100756.67;130305;1268;108924;-77
2022/05/07 02:52:35;;;;;;;13.40;9.30;;;;;;;6.95;60.08;100756.59;130238;1268;108880;-77
2022/05/07 02:55:41;;;;;;;13.40;9.60;;;;;;;6.91;59.94;100755.88;130183;1268;108737;-77
2022/05/07 02:58:46;;;;;;;13.60;8.80;;;;;;;6.85;59.96;100763.98;130208;1268;108993;-77
2022/05/07 03:01:52;;;;;;;13.50;9.60;;;;;;;6.82;60.10;100766.26;130225;1268;108866;-77
2022/05/07 03:04:59;;;;;;;12.90;9.60;;;;;;;6.79;60.14;100768.46;130309;1268;108869;-80
2022/05/07 03:08:05;;;;;;;14.30;9.20;;;;;;;6.80;60.08;100767.52;130197;1268;108768;-76
2022/05/07 03:11:13;;;;;;;11.70;8.60;;;;;;;6.80;60.25;100766.98;130235;1268;108975;-76
2022/05/07 03:14:20;;;;;;;12.50;9.50;;;;;;;6.77;59.83;100764.00;130246;1268;108932;-76
2022/05/07 03:17:26;;;;;;;13.10;9.00;;;;;;;6.72;60.18;100765.48;130186;1268;107357;-78
2022/05/07 03:20:32;;;;;;;12.20;9.30;;;;;;;6.73;60.41;100768.20;130306;1268;108751;-76
2022/05/07 03:23:37;;;;;;;13.70;9.30;;;;;;;6.76;60.30;100769.05;130231;1268;108958;-76
2022/05/07 03:26:46;;;;;;;12.20;8.90;;;;;;;6.79;60.17;100770.78;130218;1268;108861;-76
2022/05/07 03:29:58;;;;;;;13.90;9.50;;;;;;;6.80;60.18;100773.34;130231;1268;108812;-77
2022/05/07 03:33:05;;;;;;;13.50;9.30;;;;;;;6.79;60.53;100781.91;130410;1267;108771;-76
2022/05/07 03:36:11;;;;;;;11.70;8.80;;;;;;;6.83;60.63;100780.02;130265;1268;108961;-77
2022/05/07 03:39:16;;;;;;;13.10;9.00;;;;;;;6.88;60.56;100782.27;130215;1268;108840;-77
2022/05/07 03:42:22;;;;;;;11.70;8.50;;;;;;;6.95;60.68;100787.59;130227;1268;108760;-77
2022/05/07 03:45:29;;;;;;;11.50;7.70;;;;;;;7.03;60.94;100783.41;130211;1268;108818;-76
2022/05/07 03:48:35;;;;;;;11.40;8.30;;;;;;;7.22;61.06;100783.76;130037;1268;242751;-76
2022/05/07 03:55:07;;;;;;;10.00;8.00;;;;;;;7.70;60.81;100784.80;130231;1268;108782;-77
2022/05/07 03:58:15;;;;;;;11.70;8.90;;;;;;;7.94;60.80;100786.59;130245;1268;108088;-76
2022/05/07 04:01:21;;;;;;;11.70;8.90;;;;;;;8.21;60.89;100790.66;130265;1268;108864;-76
2022/05/07 04:04:26;;;;;;;11.00;8.50;;;;;;;8.46;60.72;100788.42;130279;1268;108772;-76
2022/05/07 04:07:32;;;;;;;11.00;8.50;;;;;;;8.68;60.73;100786.27;130339;1268;108850;-77
2022/05/07 04:10:44;;;;;;;11.30;9.10;;;;;;;8.92;60.72;100789.90;130332;1268;108983;-78
2022/05/07 04:13:52;;;;;;;11.20;8.60;;;;;;;9.18;60.52;100792.92;130223;1268;108713;-78
2022/05/07 04:16:59;;;;;;;11.00;8.60;;;;;;;9.44;60.79;100798.19;130275;1268;108821;-73
2022/05/07 04:20:06;;;;;;;11.50;8.70;;;;;;;9.69;60.63;100797.95;130341;1268;108812;-74
2022/05/07 04:23:14;;;;;;;12.00;8.60;;;;;;;9.92;60.82;100805.54;130315;1268;108741;-73
2022/05/07 04:26:22;;;;;;;12.30;8.60;;;;;;;10.13;60.74;100804.23;130306;1268;108678;-73
2022/05/07 04:29:28;;;;;;;11.40;8.30;;;;;;;10.35;60.97;100809.37;130282;1268;108702;-73
2022/05/07 04:32:42;;;;;;;9.50;8.00;;;;;;;10.61;60.85;100807.95;130207;1268;108655;-71
2022/05/07 04:35:49;;;;;;;10.70;8.50;;;;;;;10.85;60.62;100811.75;130310;1268;108650;-72
2022/05/07 04:38:56;;;;;;;11.60;8.70;;;;;;;11.13;61.20;100815.84;130350;1268;108769;-72
2022/05/07 04:42:06;;;;;;;11.30;7.90;;;;;;;11.35;61.06;100808.92;130223;1268;107677;-72
2022/05/07 04:45:34;;;;;;;10.70;7.90;;;;;;;11.60;61.42;100811.36;130350;1267;108742;-72
2022/05/07 04:48:57;;;;;;;12.00;8.40;;;;;;;11.89;61.60;100808.48;130304;1267;108793;-73
2022/05/07 04:52:05;;;;;;;11.10;8.80;;;;;;;12.22;61.51;100809.86;130485;1267;108745;-72
2022/05/07 04:55:12;;;;;;;14.00;8.80;;;;;;;12.57;61.36;100812.94;130529;1267;108765;-72
2022/05/07 04:58:21;;;;;;;13.10;10.10;;;;;;;12.82;61.30;100810.20;130467;1267;108816;-72
2022/05/07 05:01:27;;;;;;;14.90;10.70;;;;;;;13.01;61.58;100814.55;130477;1267;108894;-73
2022/05/07 05:04:33;;;;;;;13.30;10.40;;;;;;;13.11;61.44;100815.48;130559;1267;108728;-72
2022/05/07 05:07:40;;;;;;;14.10;10.50;;;;;;;13.23;61.32;100813.89;130393;1267;108820;-72
2022/05/07 05:10:46;;;;;;;16.20;10.80;;;;;;;13.31;61.38;100818.86;130293;1266;108626;-72
2022/05/07 05:13:52;;;;;;;16.10;11.10;;;;;;;13.42;61.55;100826.31;130414;1267;108758;-72
2022/05/07 05:16:58;;;;;;;13.50;11.20;;;;;;;13.51;61.37;100823.92;130416;1267;108944;-73
2022/05/07 05:20:06;;;;;;;15.80;11.60;;;;;;;13.63;61.38;100820.27;130402;1267;108719;-72
2022/05/07 05:23:12;;;;;;;15.10;11.00;;;;;;;13.68;61.36;100824.90;130178;1267;108725;-73
2022/05/07 05:26:23;;;;;;;16.80;11.00;;;;;;;13.72;61.36;100825.92;130471;1266;108856;-73
2022/05/07 05:29:33;;;;;;;12.60;10.30;;;;;;;13.82;61.39;100827.38;130420;1267;108865;-73
2022/05/07 05:32:41;;;;;;;14.00;10.50;;;;;;;13.92;61.00;100829.54;130330;1267;108727;-72
2022/05/07 05:35:48;;;;;;;11.70;9.90;;;;;;;14.00;61.01;100828.23;130385;1267;107730;-72
2022/05/07 05:38:53;;;;;;;13.60;10.00;;;;;;;14.20;61.01;100829.51;130350;1266;108863;-72
2022/05/07 05:42:02;;;;;;;15.80;10.40;;;;;;;14.36;60.87;100830.97;130301;1266;108920;-73
2022/05/07 05:45:11;;;;;;;12.90;10.40;;;;;;;14.58;60.78;100833.72;130343;1266;108945;-73
2022/05/07 05:48:19;;;;;;;12.80;10.40;;;;;;;14.83;60.30;100837.06;130319;1267;108899;-74
2022/05/07 05:51:25;;;;;;;12.60;10.00;;;;;;;15.00;60.27;100833.64;130352;1267;108890;-72
2022/05/07 05:54:31;;;;;;;13.80;10.60;;;;;;;15.01;60.04;100833.70;130277;1267;108935;-73
2022/05/07 05:57:38;;;;;;;13.60;10.10;;;;;;;14.99;60.30;100835.39;130300;1267;108668;-72
2022/05/07 06:00:44;;;;;;;8.70;7.50;;;;;;;14.96;59.28;100836.84;130314;1267;108848;-72
2022/05/07 06:03:51;;;;;;;10.20;8.00;;;;;;;14.96;59.67;100838.92;130328;1267;108645;-74
2022/05/07 06:06:57;;;;;;;12.60;9.80;;;;;;;15.06;59.55;100837.52;130368;1267;108709;-74
2022/05/07 06:10:04;;;;;;;11.30;9.00;;;;;;;15.02;59.12;100839.29;130313;1267;108838;-72
2022/05/07 06:13:11;;;;;;;10.20;8.10;;;;;;;14.95;59.18;100842.08;130404;1267;108913;-72
2022/05/07 06:16:21;;;;;;;9.70;7.70;;;;;;;14.89;58.80;100845.33;130353;1267;108872;-72
2022/05/07 06:19:28;;;;;;;7.70;6.10;;;;;;;14.86;58.57;100845.89;130251;1267;108739;-72
2022/05/07 06:22:34;;;;;;;9.60;7.40;;;;;;;14.83;58.80;100846.43;130322;1267;108689;-72
2022/05/07 06:29:04;;;;;;;7.40;5.80;;;;;;;14.77;58.04;100851.87;130304;1266;109076;-72
2022/05/07 06:32:14;;;;;;;7.80;6.00;;;;;;;14.76;58.27;100848.30;130278;1267;108931;-72
2022/05/07 06:35:20;;;;;;;7.30;5.20;;;;;;;14.76;58.08;100847.03;130314;1267;106928;-72
2022/05/07 06:38:39;;;;;;;8.20;5.50;;;;;;;14.77;58.19;100848.84;130275;1267;108882;-72
2022/05/07 06:41:47;;;;;;;6.40;3.80;;;;;;;14.84;58.41;100849.11;130350;1267;108856;-72
2022/05/07 06:44:52;;;;;;;5.00;4.00;;;;;;;14.86;56.94;100853.26;130303;1267;108857;-72
2022/05/07 06:47:58;;;;;;;5.10;3.30;;;;;;;14.82;56.83;100851.39;130307;1267;108267;-71
2022/05/07 06:51:05;;;;;;;6.20;3.30;;;;;;;14.81;55.47;100851.33;130327;1267;108860;-74
2022/05/07 06:54:10;;;;;;;4.80;3.40;;;;;;;14.80;56.15;100854.45;130301;1267;108749;-74
2022/05/07 06:57:16;;;;;;;4.80;3.40;;;;;;;14.82;55.95;100854.36;130264;1267;108810;-71
2022/05/07 07:00:21;;;;;;;5.70;4.00;;;;;;;14.84;55.67;100848.58;130352;1267;108702;-74
2022/05/07 07:03:27;;;;;;;4.60;3.30;;;;;;;14.91;56.55;100852.11;130300;1266;108941;-74
2022/05/07 07:06:33;;;;;;;5.70;3.00;;;;;;;15.05;56.51;100851.89;130349;1267;108800;-74
2022/05/07 07:09:38;;;;;;;4.80;3.20;;;;;;;15.18;56.78;100847.48;130340;1267;108584;-74
2022/05/07 07:12:44;;;;;;;4.30;3.20;;;;;;;15.27;55.81;100851.24;130312;1267;108729;-74
2022/05/07 07:15:50;;;;;;;4.20;2.40;;;;;;;15.35;55.38;100851.00;130321;1267;108809;-73
2022/05/07 07:18:56;;;;;;;3.30;2.20;;;;;;;15.35;54.06;100851.91;130185;1268;108702;-73
2022/05/07 07:22:01;;;;;;;3.70;1.70;;;;;;;15.38;54.39;100849.79;130289;1267;107702;-74
2022/05/07 07:25:08;;;;;;;2.10;1.70;;;;;;;15.43;53.73;100847.86;130358;1267;108047;-73
2022/05/07 07:28:14;;;;;;;2.10;1.60;;;;;;;15.47;53.08;100852.64;130294;1266;108647;-74
2022/05/07 07:31:20;;;;;;;3.40;1.50;;;;;;;15.49;53.61;100851.13;130312;1267;107766;-73
2022/05/07 07:34:25;;;;;;;2.80;1.60;;;;;;;15.57;54.01;100846.23;130327;1266;109004;-73
2022/05/07 07:37:33;;;;;;;3.50;1.90;;;;;;;15.65;53.53;100842.44;130406;1267;108734;-73
2022/05/07 07:40:38;;;;;;;3.90;2.10;;;;;;;15.71;53.57;100847.44;130337;1267;108805;-73
2022/05/07 07:43:44;;;;;;;3.20;1.60;;;;;;;15.79;53.66;100841.84;130427;1267;108879;-73
2022/05/07 07:50:12;;;;;;;2.80;1.60;;;;;;;15.96;52.39;100845.94;130313;1267;108679;-74
2022/05/07 07:53:22;;;;;;;1.60;1.40;;;;;;;15.98;52.69;100845.20;130340;1267;108785;-73
2022/05/07 07:56:28;;;;;;;2.20;1.40;;;;;;;16.04;52.99;100837.20;130328;1267;108804;-73
2022/05/07 07:59:34;;;;;;;1.70;1.40;;;;;;;16.13;53.25;100835.42;130327;1267;108457;-73
2022/05/07 08:02:49;;;;;;;1.30;1.00;;;;;;;16.22;52.18;100843.42;130279;1267;108918;-73
2022/05/07 08:05:57;;;;;;;2.50;1.20;;;;;;;16.29;51.84;100845.14;130368;1266;108768;-73
2022/05/07 08:12:26;;;;;;;3.40;1.30;;;;;;;16.41;51.03;100843.72;130313;1266;108794;-72
2022/05/07 08:15:31;;;;;;;2.40;1.70;;;;;;;16.43;50.20;100846.67;130325;1267;108952;-72
2022/05/07 08:18:41;;;;;;;1.70;1.30;;;;;;;16.38;50.57;100843.33;130309;1267;108817;-72
2022/05/07 08:21:46;;;;;;;1.40;1.30;;;;;;;16.41;50.59;100845.88;130318;1267;108799;-73
2022/05/07 08:24:52;;;;;;;1.40;1.10;;;;;;;16.43;50.69;100842.53;130256;1267;108722;-72
2022/05/07 08:27:57;;;;;;;1.90;1.60;;;;;;;16.54;51.07;100833.44;130315;1267;108519;-72
2022/05/07 08:31:04;;;;;;;1.70;1.30;;;;;;;16.57;50.14;100838.64;130348;1267;107481;-73
2022/05/07 08:34:09;;;;;;;1.70;1.30;;;;;;;16.57;49.60;100831.13;130354;1267;108791;-72
2022/05/07 08:37:14;;;;;;;2.60;1.50;;;;;;;16.60;50.92;100826.60;130367;1266;107459;-71
2022/05/07 08:40:20;;;;;;;2.00;1.30;;;;;;;16.68;49.59;100831.84;130241;1267;108613;-71
2022/05/07 08:43:26;;;;;;;2.00;1.50;;;;;;;16.71;49.30;100834.92;130312;1267;108680;-72
2022/05/07 08:46:32;;;;;;;2.50;1.70;;;;;;;16.72;49.74;100833.70;130267;1267;107635;-72
2022/05/07 08:49:38;;;;;;;2.30;1.80;;;;;;;16.80;50.61;100825.55;130323;1266;108815;-74
2022/05/07 08:52:47;;;;;;;1.80;1.60;;;;;;;16.92;49.81;100824.55;130339;1267;107568;-71
2022/05/07 08:55:55;;;;;;;2.50;1.70;;;;;;;17.05;50.46;100825.39;130361;1267;108801;-73
2022/05/07 08:59:01;;;;;;;1.90;1.60;;;;;;;17.20;49.92;100825.52;130407;1267;108481;-73
2022/05/07 09:02:09;;;;;;;2.40;1.50;;;;;;;17.30;50.25;100822.98;130366;1267;108939;-72
2022/05/07 09:05:16;;;;;;;3.40;2.20;;;;;;;17.49;49.26;100827.87;130357;1267;108570;-72
2022/05/07 09:08:27;;;;;;;2.60;2.20;;;;;;;17.70;50.22;100827.11;130377;1267;108721;-74
2022/05/07 09:11:42;;;;;;;2.00;1.80;;;;;;;17.97;49.88;100826.36;130383;1266;108643;-71
2022/05/07 09:14:47;;;;;;;2.60;2.20;;;;;;;18.19;49.32;100826.12;130433;1266;108740;-73
2022/05/07 09:17:53;;;;;;;2.00;1.80;;;;;;;18.28;49.02;100828.55;130270;1266;108862;-74
2022/05/07 09:21:26;;;;;;;2.20;1.60;;;;;;;18.43;49.39;100826.86;130264;1267;108872;-73
2022/05/07 09:24:32;;;;;;;2.00;1.80;;;;;;;18.60;49.26;100829.05;130342;1267;108697;-71
2022/05/07 09:27:47;;;;;;;4.00;2.40;;;;;;;18.60;48.54;100832.29;130391;1267;108876;-72
2022/05/07 09:30:57;;;;;;;3.30;2.00;;;;;;;18.56;48.88;100830.50;130312;1267;108868;-72
2022/05/07 09:37:38;;;;;;;3.60;2.20;;;;;;;18.21;47.57;100823.98;130313;1267;108665;-72
2022/05/07 09:40:44;;;;;;;19.60;4.00;;;;;;;18.23;48.77;100821.27;130397;1267;108698;-75
2022/05/07 09:43:52;;;;;;;4.40;2.20;;;;;;;18.37;47.88;100822.86;130465;1267;108935;-72
2022/05/07 09:46:59;;;;;;;2.60;2.10;;;;;;;18.47;48.41;100822.45;130347;1267;108776;-73
2022/05/07 09:50:43;;;;;;;5.20;1.70;;;;;;;18.61;47.84;100814.77;130356;1267;108743;-73
2022/05/07 09:57:31;;;;;;;2.30;1.50;;;;;;;18.80;48.37;100799.19;130326;1267;108780;-73
2022/05/07 10:00:40;;;;;;;3.10;2.10;;;;;;;18.88;48.68;100801.64;130339;1267;108639;-72
2022/05/07 10:03:54;;;;;;;3.20;2.00;;;;;;;18.86;47.88;100801.54;130344;1267;107617;-73
2022/05/07 10:07:22;;;;;;;3.30;2.10;;;;;;;18.79;47.48;100802.19;130326;1266;108810;-73
2022/05/07 10:10:30;;;;;;;2.60;1.80;;;;;;;18.53;47.76;100798.36;130371;1267;108731;-72
2022/05/07 10:13:36;;;;;;;2.00;1.70;;;;;;;18.38;47.75;100797.89;130318;1267;108851;-72
2022/05/07 10:16:42;;;;;;;1.70;1.50;;;;;;;18.35;48.04;100794.21;130314;1267;108616;-72
2022/05/07 10:19:49;;;;;;;2.20;1.60;;;;;;;18.57;47.63;100793.99;130322;1267;108580;-73
2022/05/07 10:22:59;;;;;;;2.40;1.60;;;;;;;18.69;47.60;100790.29;130441;1267;108772;-72
2022/05/07 10:26:05;;;;;;;1.70;1.30;;;;;;;18.68;47.47;100791.06;130419;1267;108976;-72
2022/05/07 10:29:22;;;;;;;2.20;1.50;;;;;;;18.68;47.28;100792.30;130361;1267;108738;-72
2022/05/07 10:32:28;;;;;;;1.70;1.40;;;;;;;18.65;47.06;100786.85;130434;1267;108672;-72
2022/05/07 10:35:45;;;;;;;2.10;1.60;;;;;;;18.84;47.57;100784.24;130426;1267;108627;-72
2022/05/07 10:38:50;;;;;;;3.00;1.80;;;;;;;19.15;47.61;100778.66;130384;1267;108914;-72
2022/05/07 10:41:57;;;;;;;3.10;1.60;;;;;;;19.46;46.94;100778.73;130392;1267;108681;-72
2022/05/07 10:45:06;;;;;;;3.00;1.70;;;;;;;19.72;45.58;100779.58;130449;1267;108840;-72
2022/05/07 10:48:20;;;;;;;1.50;1.40;;;;;;;19.93;46.41;100775.17;130517;1267;108802;-72
2022/05/07 10:51:29;;;;;;;2.70;1.40;;;;;;;20.27;46.04;100768.83;130413;1267;108921;-73
2022/05/07 10:54:36;;;;;;;2.00;1.50;;;;;;;20.52;46.54;100767.52;130446;1267;108995;-73
2022/05/07 10:57:44;;;;;;;2.80;1.70;;;;;;;20.76;45.55;100766.18;130314;1267;108848;-73
2022/05/07 11:00:54;;;;;;;2.20;1.60;;;;;;;20.72;43.74;100769.40;130331;1267;107054;-74
2022/05/07 11:04:08;;;;;;;1.50;1.30;;;;;;;20.68;45.24;100762.02;130409;1267;108322;-74
2022/05/07 11:07:22;;;;;;;3.30;1.40;;;;;;;20.84;45.17;100760.14;130351;1267;108955;-74
2022/05/07 11:10:27;;;;;;;1.90;1.10;;;;;;;20.98;44.98;100753.38;130394;1267;108639;-71
2022/05/07 11:13:37;;;;;;;2.30;1.30;;;;;;;21.03;45.04;100756.29;130393;1267;108656;-72
2022/05/07 11:16:44;;;;;;;1.60;1.10;;;;;;;20.86;43.12;100760.64;130377;1267;108796;-71
2022/05/07 11:19:50;;;;;;;1.80;1.40;;;;;;;20.56;43.02;100763.98;130376;1267;108902;-72
2022/05/07 11:23:02;;;;;;;1.80;1.10;;;;;;;20.41;43.75;100763.86;130428;1266;108704;-74
2022/05/07 11:26:19;;;;;;;1.90;1.10;;;;;;;20.33;44.20;100758.98;130466;1267;108714;-74
2022/05/07 11:29:26;;;;;;;2.80;1.10;;;;;;;20.37;44.36;100750.39;130377;1267;108739;-74
2022/05/07 11:32:41;;;;;;;1.70;1.00;;;;;;;20.44;44.29;100743.88;130417;1267;108642;-72
2022/05/07 11:35:47;;;;;;;1.70;1.30;;;;;;;20.58;44.55;100745.21;130396;1267;108791;-74
2022/05/07 11:38:59;;;;;;;1.70;1.10;;;;;;;20.64;44.00;100736.60;130164;1268;108788;-71
2022/05/07 11:42:05;;;;;;;5.20;1.50;;;;;;;20.61;43.34;100738.85;130401;1267;108851;-73
2022/05/07 11:45:29;;;;;;;3.40;1.20;;;;;;;20.32;43.52;100740.23;130422;1266;108947;-73
2022/05/07 11:48:35;;;;;;;1.60;1.00;;;;;;;20.14;43.61;100735.69;130451;1267;108830;-73
2022/05/07 11:51:40;;;;;;;1.60;1.10;;;;;;;20.11;43.67;100732.66;130394;1266;108827;-73
2022/05/07 11:54:53;;;;;;;1.70;0.90;;;;;;;20.25;44.05;100730.81;130381;1267;108991;-74
2022/05/07 11:57:57;;;;;;;;;;;;;;;20.38;43.00;100727.08;130449;1266;108657;-73
2022/05/07 12:01:02;;;;;;;3.00;1.00;;;;;;;20.48;43.06;100723.50;130346;1267;108763;-73
2022/05/07 12:04:11;;;;;;;1.80;1.30;;;;;;;20.53;42.97;100724.42;130271;1267;108776;-74
2022/05/07 12:07:17;;;;;;;1.50;1.10;;;;;;;20.61;42.89;100725.38;130352;1267;109021;-74
2022/05/07 12:10:24;;;;;;;1.60;1.10;;;;;;;20.50;42.64;100725.73;130350;1267;109079;-73
2022/05/07 12:13:29;;;;;;;1.30;1.10;;;;;;;20.47;42.89;100720.13;130375;1267;108746;-74
2022/05/07 12:20:10;;;;;;;1.40;1.00;;;;;;;20.43;42.75;100719.49;130362;1267;108718;-72
2022/05/07 12:30:02;;;;;;;2.20;1.00;;;;;;;20.15;42.61;100717.93;130404;1267;108787;-72
2022/05/07 12:33:08;;;;;;;2.00;1.00;;;;;;;20.25;42.39;100717.43;130420;1267;108639;-72
2022/05/07 12:36:13;;;;;;;1.20;0.80;;;;;;;20.19;42.47;100715.73;130345;1267;108745;-72
2022/05/07 12:39:19;;;;;;;2.40;1.20;;;;;;;20.11;42.09;100712.09;130420;1267;108622;-72
2022/05/07 12:42:25;;;;;;;1.30;0.90;;;;;;;20.05;41.98;100710.46;130350;1267;108690;-72
2022/05/07 12:45:30;;;;;;;1.40;1.00;;;;;;;20.11;41.66;100704.67;130429;1267;108653;-72
2022/05/07 12:48:36;;;;;;;1.90;1.20;;;;;;;20.26;41.09;100705.42;130309;1267;108956;-72
2022/05/07 12:51:41;;;;;;;1.40;0.80;;;;;;;20.36;41.61;100695.92;130315;1267;108995;-72
2022/05/07 12:54:46;;;;;;;3.40;1.20;;;;;;;20.49;41.78;100690.72;130380;1267;108745;-72
2022/05/07 12:57:52;;;;;;;40.50;34.70;;;;;;;20.57;41.20;100692.77;130383;1267;108643;-72
2022/05/07 13:00:58;;;;;;;6.90;5.40;;;;;;;20.46;41.57;100696.64;130472;1267;108819;-73
2022/05/07 13:04:03;;;;;;;3.30;2.30;;;;;;;20.36;41.39;100694.80;130341;1267;108867;-72
2022/05/07 13:07:09;;;;;;;2.10;1.10;;;;;;;20.23;40.70;100692.74;130152;1268;107387;-72
2022/05/07 13:10:15;;;;;;;2.10;1.60;;;;;;;20.15;41.22;100686.77;130395;1267;108870;-72
2022/05/07 13:13:23;;;;;;;2.60;1.80;;;;;;;20.05;41.13;100686.37;130384;1267;108624;-73
2022/05/07 13:16:28;;;;;;;6.00;4.00;;;;;;;19.98;41.14;100682.98;130383;1267;108780;-72
2022/05/07 13:19:34;;;;;;;5.80;4.50;;;;;;;20.18;41.28;100680.14;130378;1267;108856;-73
2022/05/07 13:22:39;;;;;;;2.40;1.20;;;;;;;20.42;40.28;100676.67;130380;1267;108715;-72
2022/05/07 13:25:45;;;;;;;1.30;0.90;;;;;;;20.66;41.05;100669.85;130386;1267;108673;-72
2022/05/07 13:28:50;;;;;;;2.50;1.90;;;;;;;20.88;40.32;100672.68;130427;1267;106983;-73
2022/05/07 13:31:56;;;;;;;2.20;0.90;;;;;;;20.99;38.85;100673.28;130381;1266;108819;-72
2022/05/07 13:35:03;;;;;;;1.40;0.70;;;;;;;21.13;40.27;100669.04;130391;1267;109351;-73
2022/05/07 13:38:08;;;;;;;2.50;1.00;;;;;;;21.34;38.69;100669.23;130356;1267;108497;-73
2022/05/07 13:41:18;;;;;;;1.30;0.90;;;;;;;21.36;38.63;100664.38;130418;1267;108794;-73
2022/05/07 13:44:24;;;;;;;2.50;0.80;;;;;;;21.46;38.98;100656.67;130359;1267;108743;-73
2022/05/07 13:47:29;;;;;;;2.10;0.90;;;;;;;21.51;38.36;100659.17;130397;1267;108758;-73
2022/05/07 13:50:35;;;;;;;2.40;0.90;;;;;;;21.53;38.62;100654.81;130380;1267;108645;-73
2022/05/07 13:53:40;;;;;;;3.00;1.40;;;;;;;21.44;37.25;100653.77;130458;1267;108828;-73
2022/05/07 13:56:46;;;;;;;1.60;1.10;;;;;;;21.28;37.84;100656.38;130421;1267;107668;-72
2022/05/07 13:59:51;;;;;;;1.80;0.80;;;;;;;21.37;38.87;100648.34;130350;1267;108697;-73
2022/05/07 14:02:56;;;;;;;2.50;0.90;;;;;;;21.55;38.66;100647.80;130309;1267;108786;-73
2022/05/07 14:06:02;;;;;;;3.80;1.10;;;;;;;21.68;38.48;100645.09;130348;1267;108794;-72
2022/05/07 14:09:07;;;;;;;2.20;0.90;;;;;;;21.69;38.86;100641.83;130358;1267;108163;-73
2022/05/07 14:12:14;;;;;;;3.00;1.20;;;;;;;21.76;39.09;100637.33;130315;1267;108486;-73
2022/05/07 14:15:19;;;;;;;2.00;0.80;;;;;;;21.78;39.11;100637.22;130333;1267;109006;-73
2022/05/07 14:18:25;;;;;;;2.60;1.10;;;;;;;21.76;39.38;100638.15;130360;1267;108742;-73
2022/05/07 14:21:31;;;;;;;1.30;0.80;;;;;;;21.74;39.22;100636.50;130393;1267;108695;-73
2022/05/07 14:24:38;;;;;;;3.10;0.90;;;;;;;21.70;39.28;100637.81;130339;1267;108870;-73
2022/05/07 14:27:44;;;;;;;1.50;0.90;;;;;;;21.62;38.91;100634.98;130349;1267;107716;-74
2022/05/07 14:30:52;;;;;;;1.60;1.00;;;;;;;21.49;39.48;100626.52;130423;1267;108733;-72
2022/05/07 14:34:00;;;;;;;1.40;0.90;;;;;;;21.47;39.55;100628.48;130013;1268;107552;-74
2022/05/07 14:37:09;;;;;;;2.60;1.20;;;;;;;21.41;38.98;100629.87;130104;1268;108860;-73
2022/05/07 14:40:31;;;;;;;1.80;1.00;;;;;;;21.25;38.34;100635.23;130159;1268;109023;-73
2022/05/07 14:43:35;;;;;;;;;;;;;;;21.07;38.96;100630.48;130128;1268;108867;-73
2022/05/07 14:46:41;;;;;;;2.00;1.00;;;;;;;21.03;38.97;100627.58;130116;1268;108926;-73
2022/05/07 14:49:47;;;;;;;1.90;1.00;;;;;;;20.98;38.74;100626.92;130105;1268;107551;-73